createdAt,value
2022-08-01T00:04:49.823Z,58.97
2022-08-01T00:10:13.880Z,59.41
2022-08-01T00:15:34.910Z,59.15
2022-08-01T00:20:55.907Z,59.75
2022-08-01T00:26:16.894Z,59.82
2022-08-01T00:31:37.916Z,60.03
2022-08-01T00:36:58.521Z,59.88
2022-08-01T00:42:19.375Z,59.68
2022-08-01T00:47:40.733Z,60.06
2022-08-01T00:53:02.232Z,60.07
2022-08-01T00:58:24.159Z,59.82
2022-08-01T01:03:58.516Z,59.95
2022-08-01T01:09:43.666Z,59.98
2022-08-01T01:15:28.043Z,60.13
2022-08-01T01:21:07.152Z,60.08
2022-08-01T01:26:46.592Z,60.26
2022-08-01T01:32:35.123Z,60.03
2022-08-01T01:38:18.981Z,59.85
2022-08-01T01:43:41.379Z,60.15
2022-08-01T01:49:02.813Z,60.08
2022-08-01T01:54:25.973Z,60.29
2022-08-01T01:59:50.822Z,60.61
2022-08-01T02:05:13.107Z,60.35
2022-08-01T02:10:36.230Z,60.34
2022-08-01T02:15:59.041Z,60.73
2022-08-01T02:21:27.683Z,60.81
2022-08-01T02:26:53.521Z,61.08
2022-08-01T02:32:23.463Z,60.83
2022-08-01T02:37:46.946Z,60.85
2022-08-01T02:43:09.265Z,60.99
2022-08-01T02:48:32.574Z,61.16
2022-08-01T02:53:57.351Z,61.31
2022-08-01T02:59:22.486Z,61.25
2022-08-01T03:04:44.995Z,61.41
2022-08-01T03:10:06.730Z,61.61
2022-08-01T03:15:29.078Z,61.44
2022-08-01T03:20:50.666Z,61.37
2022-08-01T03:26:12.287Z,61.60
2022-08-01T03:31:36.483Z,61.64
2022-08-01T03:37:03.530Z,62.07
2022-08-01T03:42:32.336Z,61.48
2022-08-01T03:48:02.508Z,61.66
2022-08-01T03:53:27.015Z,62.05
2022-08-01T03:58:50.029Z,62.12
2022-08-01T04:04:12.153Z,62.29
2022-08-01T04:09:33.795Z,62.35
2022-08-01T04:14:54.214Z,62.59
2022-08-01T04:20:16.724Z,62.60
2022-08-01T04:25:40.775Z,62.20
2022-08-01T04:31:02.397Z,62.29
2022-08-01T04:36:25.008Z,62.27
2022-08-01T04:41:50.217Z,62.18
2022-08-01T04:47:12.124Z,62.23
2022-08-01T04:52:38.001Z,62.34
2022-08-01T04:57:59.022Z,61.75
2022-08-01T05:03:21.194Z,61.24
2022-08-01T05:08:42.444Z,61.14
2022-08-01T05:14:02.977Z,61.32
2022-08-01T05:19:23.884Z,61.12
2022-08-01T05:24:44.877Z,60.85
2022-08-01T05:30:09.773Z,61.10
2022-08-01T05:35:48.150Z,60.64
2022-08-01T05:41:09.655Z,60.64
2022-08-01T05:46:31.786Z,60.09
2022-08-01T05:51:53.670Z,59.88
2022-08-01T05:57:14.815Z,59.71
2022-08-01T06:02:40.579Z,59.86
2022-08-01T06:08:01.167Z,59.41
2022-08-01T06:13:21.904Z,59.51
2022-08-01T06:18:43.073Z,59.09
2022-08-01T06:24:04.033Z,58.99
2022-08-01T06:29:25.608Z,58.66
2022-08-01T06:34:47.616Z,57.70
2022-08-01T06:40:16.242Z,58.08
2022-08-01T06:45:38.800Z,59.30
2022-08-01T06:51:14.742Z,58.38
2022-08-01T06:56:36.314Z,57.85
2022-08-01T07:01:56.963Z,57.17
2022-08-01T07:07:17.573Z,56.59
2022-08-01T07:12:39.160Z,55.95
2022-08-01T07:18:02.548Z,54.98
2022-08-01T07:23:23.235Z,55.03
2022-08-01T07:28:55.436Z,55.68
2022-08-01T07:34:16.496Z,55.53
2022-08-01T07:39:38.018Z,55.51
2022-08-01T07:44:58.558Z,55.21
2022-08-01T07:50:19.220Z,54.80
2022-08-01T07:55:39.926Z,55.36
2022-08-01T08:01:00.700Z,55.05
2022-08-01T08:06:21.556Z,55.14
2022-08-01T08:11:47.372Z,54.92
2022-08-01T08:17:08.657Z,55.51
2022-08-01T08:22:29.970Z,56.28
2022-08-01T08:27:51.394Z,55.46
2022-08-01T08:33:13.637Z,55.58
2022-08-01T08:38:34.243Z,55.21
2022-08-01T08:43:54.934Z,55.16
2022-08-01T08:49:22.098Z,55.43
2022-08-01T08:54:44.320Z,55.21
2022-08-01T09:00:06.072Z,55.75
2022-08-01T09:05:38.699Z,55.84
2022-08-01T09:11:00.348Z,55.73
2022-08-01T09:16:21.946Z,55.74
2022-08-01T09:22:04.749Z,55.36
2022-08-01T09:27:26.540Z,55.15
2022-08-01T09:33:06.217Z,54.68
2022-08-01T09:38:28.342Z,54.59
2022-08-01T09:43:51.317Z,54.63
2022-08-01T09:49:11.949Z,55.82
2022-08-01T09:54:34.950Z,55.81
2022-08-01T09:59:59.884Z,55.53
2022-08-01T10:05:36.830Z,54.88
2022-08-01T10:11:12.847Z,54.71
2022-08-01T10:16:36.778Z,54.62
2022-08-01T10:22:00.430Z,54.91
2022-08-01T10:27:24.247Z,55.11
2022-08-01T10:32:50.475Z,54.43
2022-08-01T10:38:13.764Z,54.34
2022-08-01T10:43:35.449Z,54.17
2022-08-01T10:49:05.322Z,54.37
2022-08-01T10:54:27.769Z,54.80
2022-08-01T11:00:01.022Z,54.50
2022-08-01T11:05:24.443Z,54.45
2022-08-01T11:10:45.259Z,54.63
2022-08-01T11:16:27.543Z,54.53
2022-08-01T11:22:01.248Z,55.05
2022-08-01T11:27:33.763Z,54.93
2022-08-01T11:33:11.188Z,54.20
2022-08-01T11:38:35.031Z,54.28
2022-08-01T11:44:14.666Z,54.56
2022-08-01T11:49:39.011Z,54.60
2022-08-01T11:55:03.100Z,54.57
2022-08-01T12:00:24.508Z,54.38
2022-08-01T12:05:45.452Z,54.06
2022-08-01T12:11:06.872Z,54.25
2022-08-01T12:16:32.297Z,54.74
2022-08-01T12:22:14.665Z,54.46
2022-08-01T12:27:36.667Z,54.23
2022-08-01T12:32:58.654Z,54.31
2022-08-01T12:38:24.090Z,54.67
2022-08-01T12:43:44.956Z,54.60
2022-08-01T12:49:05.895Z,54.11
2022-08-01T12:54:27.110Z,53.85
2022-08-01T12:59:47.834Z,54.19
2022-08-01T13:05:10.565Z,54.39
2022-08-01T13:10:31.948Z,54.88
2022-08-01T13:16:05.384Z,54.51
2022-08-01T13:21:28.467Z,54.51
2022-08-01T13:26:57.470Z,55.20
2022-08-01T13:32:28.710Z,54.70
2022-08-01T13:37:51.392Z,55.02
2022-08-01T13:43:12.359Z,55.07
2022-08-01T13:48:33.950Z,54.69
2022-08-01T13:53:55.491Z,54.60
2022-08-01T13:59:17.042Z,54.17
2022-08-01T14:04:37.868Z,53.88
2022-08-01T14:10:17.719Z,53.58
2022-08-01T14:15:39.918Z,53.75
2022-08-01T14:21:01.647Z,54.01
2022-08-01T14:26:26.708Z,53.65
2022-08-01T14:31:47.555Z,53.72
2022-08-01T14:37:09.391Z,53.67
2022-08-01T14:42:30.628Z,53.72
2022-08-01T14:47:51.545Z,53.55
2022-08-01T14:53:12.418Z,53.36
2022-08-01T14:58:33.809Z,53.62
2022-08-01T15:03:54.795Z,53.23
2022-08-01T15:09:15.498Z,53.32
2022-08-01T15:14:54.348Z,53.23
2022-08-01T15:20:15.329Z,53.39
2022-08-01T15:25:40.884Z,53.49
2022-08-01T15:31:02.979Z,53.11
2022-08-01T15:36:25.745Z,53.16
2022-08-01T15:41:47.144Z,53.07
2022-08-01T15:47:09.191Z,53.59
2022-08-01T15:52:30.941Z,53.54
2022-08-01T15:57:52.832Z,53.57
2022-08-01T16:03:13.600Z,53.34
2022-08-01T16:08:34.597Z,53.39
2022-08-01T16:13:55.163Z,53.65
2022-08-01T16:19:19.209Z,53.83
2022-08-01T16:24:40.168Z,53.61
2022-08-01T16:30:00.751Z,53.75
2022-08-01T16:35:21.526Z,54.33
2022-08-01T16:40:48.050Z,55.12
2022-08-01T16:46:09.709Z,54.77
2022-08-01T16:51:32.444Z,54.41
2022-08-01T16:56:58.175Z,55.04
2022-08-01T17:02:29.603Z,55.50
2022-08-01T17:07:50.248Z,56.32
2022-08-01T17:13:11.764Z,57.03
2022-08-01T17:18:32.648Z,58.08
2022-08-01T17:23:53.816Z,58.37
2022-08-01T17:29:14.626Z,59.24
2022-08-01T17:34:35.162Z,59.57
2022-08-01T17:39:55.691Z,59.58
2022-08-01T17:45:28.025Z,59.64
2022-08-01T17:50:50.272Z,59.97
2022-08-01T17:56:10.885Z,60.08
2022-08-01T18:01:31.794Z,60.28
2022-08-01T18:06:58.373Z,60.33
2022-08-01T18:12:20.051Z,60.92
2022-08-01T18:17:40.846Z,60.85
2022-08-01T18:23:01.496Z,60.86
2022-08-01T18:28:31.183Z,60.88
2022-08-01T18:33:53.712Z,60.56
2022-08-01T18:39:14.634Z,60.76
2022-08-01T18:44:36.951Z,60.71
2022-08-01T18:49:57.814Z,61.07
2022-08-01T18:55:18.654Z,60.77
2022-08-01T19:00:40.090Z,61.43
2022-08-01T19:06:01.196Z,61.05
2022-08-01T19:11:22.349Z,61.45
2022-08-01T19:16:43.008Z,61.58
2022-08-01T19:22:03.834Z,61.72
2022-08-01T19:27:30.440Z,61.75
2022-08-01T19:32:54.593Z,61.49
2022-08-01T19:38:15.341Z,61.67
2022-08-01T19:43:41.445Z,61.72
2022-08-01T19:49:04.642Z,61.60
2022-08-01T19:54:30.461Z,61.68
2022-08-01T19:59:52.174Z,61.78
2022-08-01T20:05:12.927Z,62.11
2022-08-01T20:10:34.418Z,61.88
2022-08-01T20:15:55.702Z,62.44
2022-08-01T20:21:17.432Z,62.59
2022-08-01T20:26:40.042Z,62.68
2022-08-01T20:32:01.994Z,62.45
2022-08-01T20:38:05.991Z,62.49
2022-08-01T20:43:03.777Z,62.55
2022-08-01T20:48:29.413Z,62.94
2022-08-01T20:53:52.650Z,62.34
2022-08-01T20:59:54.468Z,62.47
2022-08-01T21:05:06.376Z,62.88
2022-08-01T21:10:29.325Z,62.73
2022-08-01T21:16:23.309Z,62.36
2022-08-01T21:21:50.798Z,62.56
2022-08-01T21:27:17.171Z,62.23
2022-08-01T21:32:37.865Z,62.33
2022-08-01T21:38:01.670Z,62.40
2022-08-01T21:43:23.242Z,62.16
2022-08-01T21:48:46.394Z,62.24
2022-08-01T21:54:13.232Z,62.09
2022-08-01T21:59:51.374Z,62.15
2022-08-01T22:05:14.038Z,62.52
2022-08-01T22:10:36.394Z,62.14
2022-08-01T22:15:57.927Z,62.29
2022-08-01T22:21:19.642Z,61.88
2022-08-01T22:26:41.401Z,62.15
2022-08-01T22:32:03.131Z,62.40
2022-08-01T22:37:56.104Z,62.16
2022-08-01T22:43:15.652Z,62.52
2022-08-01T22:48:49.663Z,62.16
2022-08-01T22:54:16.178Z,62.46
2022-08-01T22:59:52.368Z,62.38
2022-08-01T23:05:20.795Z,62.62
2022-08-01T23:10:43.532Z,62.49
2022-08-01T23:16:05.049Z,62.56
2022-08-01T23:21:28.057Z,62.42
2022-08-01T23:26:50.569Z,62.79
2022-08-01T23:32:11.618Z,62.69
2022-08-01T23:37:33.163Z,62.58
2022-08-01T23:42:54.837Z,62.98
2022-08-01T23:48:15.851Z,62.85
2022-08-01T23:53:38.533Z,63.54
2022-08-01T23:58:59.799Z,62.66
